Terminal Aerodrome Forecast
Issued by NWS

Home | Current Version | Previous Version | Text Only | Print | Product List | Glossary On
Versions: 1 2 3 4 5 6 7 8 9 10 11 12 13 14 15 16 17 18 19 20 21 22 23 24 25 26 27 28 29 30 31 32 33 34
723
FTUS41 KGYX 271817 AAA
TAFLEB
TAF AMD
KLEB 271817Z 2718/2818 25013G23KT P6SM SCT060 SCT090
      TEMPO 2719/2723 BKN050 BKN080
     FM280000 20004KT P6SM SCT050 SCT080
     FM281200 00000KT P6SM BKN050 OVC080=

USA.gov is the U.S. government's official web portal to all federal, state and local government web resources and services.